sensor_id;sensor_type;location;lat;lon;timestamp;pressure;altitude;pressure_sealevel;temperature;humidity
58367;BME280;57745;42.524;12.052;2023-05-07T00:00:00;96535.41;;;21.49;41.35
58367;BME280;57745;42.524;12.052;2023-05-07T00:02:26;96529.63;;;21.47;41.09
58367;BME280;57745;42.524;12.052;2023-05-07T00:04:52;96535.94;;;21.59;40.99
58367;BME280;57745;42.524;12.052;2023-05-07T00:07:18;96533.69;;;21.63;40.61
58367;BME280;57745;42.524;12.052;2023-05-07T00:09:43;96537.41;;;21.48;40.93
58367;BME280;57745;42.524;12.052;2023-05-07T00:12:09;96538.88;;;21.44;40.76
58367;BME280;57745;42.524;12.052;2023-05-07T00:14:34;96535.41;;;21.49;40.97
58367;BME280;57745;42.524;12.052;2023-05-07T00:17:00;96543.19;;;21.56;40.83
58367;BME280;57745;42.524;12.052;2023-05-07T00:19:25;96548.91;;;21.41;41.23
58367;BME280;57745;42.524;12.052;2023-05-07T00:21:51;96554.72;;;21.49;40.77
58367;BME280;57745;42.524;12.052;2023-05-07T00:24:18;96555.75;;;21.57;40.71
58367;BME280;57745;42.524;12.052;2023-05-07T00:26:44;96552.22;;;21.51;40.66
58367;BME280;57745;42.524;12.052;2023-05-07T00:29:09;96561.47;;;21.48;40.81
58367;BME280;57745;42.524;12.052;2023-05-07T00:31:34;96559.00;;;21.50;41.05
58367;BME280;57745;42.524;12.052;2023-05-07T00:34:00;96554.19;;;21.45;41.31
58367;BME280;57745;42.524;12.052;2023-05-07T00:36:25;96554.72;;;21.55;41.53
58367;BME280;57745;42.524;12.052;2023-05-07T00:38:51;96561.69;;;21.39;41.72
58367;BME280;57745;42.524;12.052;2023-05-07T00:41:16;96556.63;;;21.32;41.80
58367;BME280;57745;42.524;12.052;2023-05-07T00:43:42;96545.91;;;21.45;41.87
58367;BME280;57745;42.524;12.052;2023-05-07T00:46:07;96552.72;;;21.55;41.88
58367;BME280;57745;42.524;12.052;2023-05-07T00:48:33;96551.66;;;21.41;42.01
58367;BME280;57745;42.524;12.052;2023-05-07T00:50:58;96554.41;;;21.36;41.82
58367;BME280;57745;42.524;12.052;2023-05-07T00:53:24;96553.97;;;21.54;41.42
58367;BME280;57745;42.524;12.052;2023-05-07T00:55:50;96549.91;;;21.44;41.35
58367;BME280;57745;42.524;12.052;2023-05-07T00:58:16;96542.63;;;21.35;41.35
58367;BME280;57745;42.524;12.052;2023-05-07T01:00:41;96539.31;;;21.26;42.30
58367;BME280;57745;42.524;12.052;2023-05-07T01:03:07;96549.16;;;21.38;42.04
58367;BME280;57745;42.524;12.052;2023-05-07T01:05:32;96550.13;;;21.35;41.94
58367;BME280;57745;42.524;12.052;2023-05-07T01:07:58;96554.69;;;21.38;41.71
58367;BME280;57745;42.524;12.052;2023-05-07T01:10:24;96541.06;;;21.29;41.83
58367;BME280;57745;42.524;12.052;2023-05-07T01:12:51;96547.59;;;21.31;42.03
58367;BME280;57745;42.524;12.052;2023-05-07T01:15:17;96552.16;;;21.40;41.84
58367;BME280;57745;42.524;12.052;2023-05-07T01:17:43;96553.16;;;21.37;41.90
58367;BME280;57745;42.524;12.052;2023-05-07T01:20:10;96554.69;;;21.38;41.91
58367;BME280;57745;42.524;12.052;2023-05-07T01:22:37;96551.38;;;21.34;42.03
58367;BME280;57745;42.524;12.052;2023-05-07T01:25:04;96559.41;;;21.32;41.59
58367;BME280;57745;42.524;12.052;2023-05-07T01:27:29;96555.88;;;21.26;41.55
58367;BME280;57745;42.524;12.052;2023-05-07T01:29:55;96557.53;;;21.12;41.41
58367;BME280;57745;42.524;12.052;2023-05-07T01:32:32;96547.06;;;21.22;41.36
58367;BME280;57745;42.524;12.052;2023-05-07T01:35:00;96550.34;;;21.26;41.28
58367;BME280;57745;42.524;12.052;2023-05-07T01:37:26;96545.66;;;21.43;40.81
58367;BME280;57745;42.524;12.052;2023-05-07T01:39:52;96539.31;;;21.26;41.07
58367;BME280;57745;42.524;12.052;2023-05-07T01:42:18;96543.59;;;21.32;41.07
58367;BME280;57745;42.524;12.052;2023-05-07T01:44:43;96545.75;;;21.17;41.52
58367;BME280;57745;42.524;12.052;2023-05-07T01:47:10;96543.81;;;21.23;41.32
58367;BME280;57745;42.524;12.052;2023-05-07T01:49:35;96542.03;;;21.20;41.31
58367;BME280;57745;42.524;12.052;2023-05-07T01:52:01;96548.03;;;21.19;41.06
58367;BME280;57745;42.524;12.052;2023-05-07T01:54:27;96545.28;;;21.19;41.32
58367;BME280;57745;42.524;12.052;2023-05-07T01:56:53;96544.31;;;21.22;41.60
58367;BME280;57745;42.524;12.052;2023-05-07T01:59:19;96539.81;;;21.24;41.21
58367;BME280;57745;42.524;12.052;2023-05-07T02:01:44;96541.06;;;21.29;41.48
58367;BME280;57745;42.524;12.052;2023-05-07T02:04:10;96545.00;;;21.16;41.45
58367;BME280;57745;42.524;12.052;2023-05-07T02:06:35;96539.47;;;21.11;41.83
58367;BME280;57745;42.524;12.052;2023-05-07T02:09:01;96538.66;;;20.99;42.13
58367;BME280;57745;42.524;12.052;2023-05-07T02:11:26;96535.28;;;21.27;41.40
58367;BME280;57745;42.524;12.052;2023-05-07T02:13:52;96534.25;;;21.19;42.18
58367;BME280;57745;42.524;12.052;2023-05-07T02:16:18;96524.78;;;21.25;41.98
58367;BME280;57745;42.524;12.052;2023-05-07T02:18:44;96526.75;;;21.19;42.01
58367;BME280;57745;42.524;12.052;2023-05-07T02:21:09;96527.47;;;21.14;42.03
58367;BME280;57745;42.524;12.052;2023-05-07T02:23:35;96528.44;;;21.11;41.92
58367;BME280;57745;42.524;12.052;2023-05-07T02:26:06;96525.28;;;21.24;41.64
58367;BME280;57745;42.524;12.052;2023-05-07T02:28:32;96524.19;;;21.15;42.06
58367;BME280;57745;42.524;12.052;2023-05-07T02:30:57;96523.75;;;21.23;41.90
58367;BME280;57745;42.524;12.052;2023-05-07T02:33:26;96521.63;;;21.06;41.64
58367;BME280;57745;42.524;12.052;2023-05-07T02:35:51;96521.28;;;20.88;41.83
58367;BME280;57745;42.524;12.052;2023-05-07T02:38:17;96519.53;;;20.90;41.47
58367;BME280;57745;42.524;12.052;2023-05-07T02:40:42;96516.28;;;20.86;41.69
58367;BME280;57745;42.524;12.052;2023-05-07T02:43:08;96518.63;;;21.04;41.33
58367;BME280;57745;42.524;12.052;2023-05-07T02:45:33;96519.16;;;21.08;41.10
58367;BME280;57745;42.524;12.052;2023-05-07T02:47:59;96513.84;;;21.05;41.66
58367;BME280;57745;42.524;12.052;2023-05-07T02:50:27;96518.66;;;21.15;41.34
58367;BME280;57745;42.524;12.052;2023-05-07T02:52:53;96515.09;;;20.98;41.76
58367;BME280;57745;42.524;12.052;2023-05-07T02:55:18;96515.63;;;21.08;41.88
58367;BME280;57745;42.524;12.052;2023-05-07T02:57:44;96512.06;;;20.96;41.86
58367;BME280;57745;42.524;12.052;2023-05-07T03:00:17;96500.59;;;20.66;42.98
58367;BME280;57745;42.524;12.052;2023-05-07T03:02:44;96508.50;;;20.85;42.62
58367;BME280;57745;42.524;12.052;2023-05-07T03:05:09;96511.31;;;20.59;43.50
58367;BME280;57745;42.524;12.052;2023-05-07T03:07:35;96511.03;;;20.88;43.31
58367;BME280;57745;42.524;12.052;2023-05-07T03:10:01;96508.50;;;20.85;43.90
58367;BME280;57745;42.524;12.052;2023-05-07T03:12:27;96500.38;;;20.70;44.63
58367;BME280;57745;42.524;12.052;2023-05-07T03:14:52;96496.22;;;20.91;44.71
58367;BME280;57745;42.524;12.052;2023-05-07T03:17:18;96499.84;;;20.66;46.02
58367;BME280;57745;42.524;12.052;2023-05-07T03:19:43;96491.41;;;20.75;46.74
58367;BME280;57745;42.524;12.052;2023-05-07T03:22:08;96489.78;;;20.57;47.17
58367;BME280;57745;42.524;12.052;2023-05-07T03:24:34;96495.94;;;20.84;46.36
58367;BME280;57745;42.524;12.052;2023-05-07T03:27:00;96489.47;;;20.92;45.68
58367;BME280;57745;42.524;12.052;2023-05-07T03:29:26;96495.41;;;20.74;46.09
58367;BME280;57745;42.524;12.052;2023-05-07T03:31:51;96491.34;;;20.64;46.36
58367;BME280;57745;42.524;12.052;2023-05-07T03:34:17;96485.63;;;20.78;46.89
58367;BME280;57745;42.524;12.052;2023-05-07T03:36:49;96489.69;;;20.83;46.81
58367;BME280;57745;42.524;12.052;2023-05-07T03:39:15;96484.97;;;20.89;46.42
58367;BME280;57745;42.524;12.052;2023-05-07T03:41:42;96483.94;;;20.87;46.66
58367;BME280;57745;42.524;12.052;2023-05-07T03:44:07;96491.97;;;20.90;46.54
58367;BME280;57745;42.524;12.052;2023-05-07T03:46:33;96485.75;;;20.95;46.54
58367;BME280;57745;42.524;12.052;2023-05-07T03:48:59;96496.91;;;20.75;47.37
58367;BME280;57745;42.524;12.052;2023-05-07T03:51:25;96491.91;;;20.79;47.34
58367;BME280;57745;42.524;12.052;2023-05-07T03:53:52;96490.66;;;20.74;47.30
58367;BME280;57745;42.524;12.052;2023-05-07T03:56:22;96491.41;;;20.75;47.36
58367;BME280;57745;42.524;12.052;2023-05-07T03:58:48;96498.25;;;20.48;47.83
58367;BME280;57745;42.524;12.052;2023-05-07T04:01:13;96488.38;;;20.73;47.41
58367;BME280;57745;42.524;12.052;2023-05-07T04:03:39;96495.53;;;20.96;47.30
58367;BME280;57745;42.524;12.052;2023-05-07T04:06:05;96500.78;;;20.57;48.90
58367;BME280;57745;42.524;12.052;2023-05-07T04:08:30;96503.66;;;20.74;48.60
58367;BME280;57745;42.524;12.052;2023-05-07T04:10:57;96496.44;;;20.82;48.16
58367;BME280;57745;42.524;12.052;2023-05-07T04:13:22;96497.56;;;20.59;49.31
58367;BME280;57745;42.524;12.052;2023-05-07T04:15:52;96500.09;;;20.68;49.05
58367;BME280;57745;42.524;12.052;2023-05-07T04:18:17;96500.84;;;20.63;49.48
58367;BME280;57745;42.524;12.052;2023-05-07T04:20:43;96505.94;;;20.75;49.21
58367;BME280;57745;42.524;12.052;2023-05-07T04:23:08;96505.19;;;20.80;49.34
58367;BME280;57745;42.524;12.052;2023-05-07T04:25:34;96507.94;;;20.75;49.28
58367;BME280;57745;42.524;12.052;2023-05-07T04:27:59;96507.06;;;20.58;50.12
58367;BME280;57745;42.524;12.052;2023-05-07T04:30:25;96507.66;;;20.73;49.49
58367;BME280;57745;42.524;12.052;2023-05-07T04:32:51;96511.06;;;20.57;50.34
58367;BME280;57745;42.524;12.052;2023-05-07T04:35:17;96517.88;;;20.67;50.08
58367;BME280;57745;42.524;12.052;2023-05-07T04:37:42;96523.09;;;20.59;50.46
58367;BME280;57745;42.524;12.052;2023-05-07T04:40:08;96529.72;;;20.73;50.30
58367;BME280;57745;42.524;12.052;2023-05-07T04:42:33;96525.19;;;20.70;50.71
58367;BME280;57745;42.524;12.052;2023-05-07T04:44:59;96522.81;;;20.52;51.56
58367;BME280;57745;42.524;12.052;2023-05-07T04:47:25;96526.19;;;20.72;51.46
58367;BME280;57745;42.524;12.052;2023-05-07T04:49:50;96525.38;;;20.61;51.76
58367;BME280;57745;42.524;12.052;2023-05-07T04:52:16;96528.97;;;20.78;51.48
58367;BME280;57745;42.524;12.052;2023-05-07T04:54:43;96530.00;;;20.80;51.35
58367;BME280;57745;42.524;12.052;2023-05-07T04:57:08;96535.16;;;20.62;51.81
58367;BME280;57745;42.524;12.052;2023-05-07T04:59:34;96532.84;;;20.55;52.03
58367;BME280;57745;42.524;12.052;2023-05-07T05:01:59;96530.16;;;20.66;51.86
58367;BME280;57745;42.524;12.052;2023-05-07T05:04:25;96537.78;;;20.82;51.53
58367;BME280;57745;42.524;12.052;2023-05-07T05:06:50;96543.09;;;20.91;51.18
58367;BME280;57745;42.524;12.052;2023-05-07T05:09:16;96540.75;;;20.73;51.70
58367;BME280;57745;42.524;12.052;2023-05-07T05:11:41;96539.91;;;20.61;52.53
58367;BME280;57745;42.524;12.052;2023-05-07T05:14:07;96540.41;;;20.60;52.63
58367;BME280;57745;42.524;12.052;2023-05-07T05:16:32;96542.69;;;20.67;52.34
58367;BME280;57745;42.524;12.052;2023-05-07T05:18:58;96548.19;;;20.67;52.45
58367;BME280;57745;42.524;12.052;2023-05-07T05:21:23;96553.03;;;20.77;52.33
58367;BME280;57745;42.524;12.052;2023-05-07T05:23:49;96546.34;;;20.90;51.94
58367;BME280;57745;42.524;12.052;2023-05-07T05:26:14;96554.59;;;20.84;52.20
58367;BME280;57745;42.524;12.052;2023-05-07T05:28:40;96550.31;;;20.83;52.27
58367;BME280;57745;42.524;12.052;2023-05-07T05:31:05;96553.38;;;20.91;51.81
58367;BME280;57745;42.524;12.052;2023-05-07T05:33:31;96554.19;;;21.02;51.40
58367;BME280;57745;42.524;12.052;2023-05-07T05:35:56;96549.84;;;20.90;52.12
58367;BME280;57745;42.524;12.052;2023-05-07T05:38:23;96552.19;;;21.03;51.34
58367;BME280;57745;42.524;12.052;2023-05-07T05:40:48;96558.94;;;20.96;51.67
58367;BME280;57745;42.524;12.052;2023-05-07T05:43:15;96553.22;;;21.05;51.21
58367;BME280;57745;42.524;12.052;2023-05-07T05:45:40;96563.25;;;21.08;51.33
58367;BME280;57745;42.524;12.052;2023-05-07T05:48:06;96559.69;;;21.02;51.18
58367;BME280;57745;42.524;12.052;2023-05-07T05:50:31;96558.59;;;21.20;50.23
58367;BME280;57745;42.524;12.052;2023-05-07T05:52:58;96555.53;;;21.12;50.58
58367;BME280;57745;42.524;12.052;2023-05-07T05:55:23;96564.88;;;21.21;50.25
58367;BME280;57745;42.524;12.052;2023-05-07T05:57:49;96563.34;;;21.20;49.85
58367;BME280;57745;42.524;12.052;2023-05-07T06:00:16;96565.81;;;21.17;49.73
58367;BME280;57745;42.524;12.052;2023-05-07T06:02:41;96574.09;;;21.17;49.42
58367;BME280;57745;42.524;12.052;2023-05-07T06:05:08;96567.56;;;21.15;49.59
58367;BME280;57745;42.524;12.052;2023-05-07T06:07:33;96566.63;;;21.24;48.31
58367;BME280;57745;42.524;12.052;2023-05-07T06:10:00;96567.34;;;21.19;48.05
58367;BME280;57745;42.524;12.052;2023-05-07T06:12:25;96564.91;;;21.32;47.75
58367;BME280;57745;42.524;12.052;2023-05-07T06:14:51;96573.72;;;21.36;47.59
58367;BME280;57745;42.524;12.052;2023-05-07T06:17:16;96567.94;;;21.34;48.18
58367;BME280;57745;42.524;12.052;2023-05-07T06:19:42;96565.94;;;21.40;48.34
58367;BME280;57745;42.524;12.052;2023-05-07T06:22:07;96559.88;;;21.30;48.30
58367;BME280;57745;42.524;12.052;2023-05-07T06:24:33;96557.28;;;21.15;48.75
58367;BME280;57745;42.524;12.052;2023-05-07T06:26:58;96558.13;;;21.27;48.33
58367;BME280;57745;42.524;12.052;2023-05-07T06:29:25;96557.94;;;21.42;47.31
58367;BME280;57745;42.524;12.052;2023-05-07T06:31:55;96563.72;;;21.44;46.51
58367;BME280;57745;42.524;12.052;2023-05-07T06:34:20;96564.44;;;21.39;46.99
58367;BME280;57745;42.524;12.052;2023-05-07T06:36:46;96570.16;;;21.24;47.20
58367;BME280;57745;42.524;12.052;2023-05-07T06:39:11;96567.94;;;21.34;47.28
58367;BME280;57745;42.524;12.052;2023-05-07T06:41:37;96571.22;;;21.38;47.17
58367;BME280;57745;42.524;12.052;2023-05-07T06:44:02;96576.78;;;21.49;47.37
58367;BME280;57745;42.524;12.052;2023-05-07T06:46:28;96575.28;;;21.48;46.96
58367;BME280;57745;42.524;12.052;2023-05-07T06:48:54;96573.56;;;21.56;46.73
58367;BME280;57745;42.524;12.052;2023-05-07T06:51:19;96575.03;;;21.46;46.69
58367;BME280;57745;42.524;12.052;2023-05-07T06:53:45;96569.72;;;21.42;46.68
58367;BME280;57745;42.524;12.052;2023-05-07T06:56:10;96566.91;;;21.31;46.64
58367;BME280;57745;42.524;12.052;2023-05-07T06:58:35;96572.47;;;21.37;46.60
58367;BME280;57745;42.524;12.052;2023-05-07T07:01:01;96573.78;;;21.52;46.70
58367;BME280;57745;42.524;12.052;2023-05-07T07:03:26;96582.72;;;21.31;46.94
58367;BME280;57745;42.524;12.052;2023-05-07T07:05:54;96582.44;;;21.29;46.94
58367;BME280;57745;42.524;12.052;2023-05-07T07:08:19;96575.28;;;21.54;46.21
58367;BME280;57745;42.524;12.052;2023-05-07T07:10:46;96576.03;;;21.54;46.41
58367;BME280;57745;42.524;12.052;2023-05-07T07:13:13;96573.31;;;21.65;45.87
58367;BME280;57745;42.524;12.052;2023-05-07T07:15:39;96583.25;;;21.35;45.99
58367;BME280;57745;42.524;12.052;2023-05-07T07:18:05;96574.78;;;21.55;45.99
58367;BME280;57745;42.524;12.052;2023-05-07T07:20:31;96576.78;;;21.49;46.19
58367;BME280;57745;42.524;12.052;2023-05-07T07:22:56;96577.78;;;21.46;46.72
58367;BME280;57745;42.524;12.052;2023-05-07T07:25:22;96580.66;;;21.79;46.16
58367;BME280;57745;42.524;12.052;2023-05-07T07:27:49;96590.09;;;21.56;46.49
58367;BME280;57745;42.524;12.052;2023-05-07T07:30:14;96585.38;;;21.62;45.61
58367;BME280;57745;42.524;12.052;2023-05-07T07:32:40;96592.75;;;21.88;44.98
58367;BME280;57745;42.524;12.052;2023-05-07T07:35:06;96591.94;;;21.70;45.79
58367;BME280;57745;42.524;12.052;2023-05-07T07:37:31;96589.44;;;21.78;45.43
58367;BME280;57745;42.524;12.052;2023-05-07T07:39:57;96590.91;;;21.62;45.65
58367;BME280;57745;42.524;12.052;2023-05-07T07:42:22;96591.69;;;21.79;45.64
58367;BME280;57745;42.524;12.052;2023-05-07T07:44:48;96585.44;;;21.84;45.12
58367;BME280;57745;42.524;12.052;2023-05-07T07:47:13;96590.44;;;21.80;44.98
58367;BME280;57745;42.524;12.052;2023-05-07T07:49:40;96590.44;;;21.80;45.47
58367;BME280;57745;42.524;12.052;2023-05-07T07:52:05;96597.94;;;21.69;45.88
58367;BME280;57745;42.524;12.052;2023-05-07T07:54:31;96588.69;;;21.77;45.43
58367;BME280;57745;42.524;12.052;2023-05-07T07:56:57;96593.69;;;21.73;45.61
58367;BME280;57745;42.524;12.052;2023-05-07T07:59:23;96595.25;;;21.85;45.07
58367;BME280;57745;42.524;12.052;2023-05-07T08:01:48;96601.22;;;21.78;44.96
58367;BME280;57745;42.524;12.052;2023-05-07T08:04:16;96593.19;;;21.69;45.03
58367;BME280;57745;42.524;12.052;2023-05-07T08:06:42;96601.72;;;21.77;44.78
58367;BME280;57745;42.524;12.052;2023-05-07T08:09:07;96594.75;;;21.93;43.80
58367;BME280;57745;42.524;12.052;2023-05-07T08:11:33;96592.97;;;21.90;44.13
58367;BME280;57745;42.524;12.052;2023-05-07T08:13:59;96603.78;;;21.88;44.44
58367;BME280;57745;42.524;12.052;2023-05-07T08:16:24;96603.03;;;21.87;44.32
58367;BME280;57745;42.524;12.052;2023-05-07T08:18:50;96603.50;;;21.80;44.43
58367;BME280;57745;42.524;12.052;2023-05-07T08:21:16;96608.28;;;21.91;44.42
58367;BME280;57745;42.524;12.052;2023-05-07T08:23:42;96609.81;;;21.92;44.07
58367;BME280;57745;42.524;12.052;2023-05-07T08:26:08;96610.34;;;21.96;44.23
58367;BME280;57745;42.524;12.052;2023-05-07T08:28:35;96606.56;;;21.93;44.50
58367;BME280;57745;42.524;12.052;2023-05-07T08:31:00;96609.88;;;22.03;44.70
58367;BME280;57745;42.524;12.052;2023-05-07T08:33:26;96609.56;;;21.95;45.00
58367;BME280;57745;42.524;12.052;2023-05-07T08:35:52;96617.16;;;22.00;44.97
58367;BME280;57745;42.524;12.052;2023-05-07T08:38:17;96609.88;;;22.03;45.57
58367;BME280;57745;42.524;12.052;2023-05-07T08:40:43;96613.34;;;21.98;45.37
58367;BME280;57745;42.524;12.052;2023-05-07T08:43:12;96606.06;;;21.95;45.72
58367;BME280;57745;42.524;12.052;2023-05-07T08:45:39;96613.09;;;21.96;45.79
58367;BME280;57745;42.524;12.052;2023-05-07T08:48:09;96616.41;;;22.00;45.81
58367;BME280;57745;42.524;12.052;2023-05-07T08:50:36;96599.34;;;22.07;45.72
58367;BME280;57745;42.524;12.052;2023-05-07T08:53:04;96612.91;;;21.99;45.93
58367;BME280;57745;42.524;12.052;2023-05-07T08:55:30;96618.88;;;21.98;46.08
58367;BME280;57745;42.524;12.052;2023-05-07T08:57:56;96616.16;;;22.03;46.05
58367;BME280;57745;42.524;12.052;2023-05-07T09:00:23;96622.94;;;22.08;45.78
58367;BME280;57745;42.524;12.052;2023-05-07T09:02:48;96618.94;;;22.09;45.76
58367;BME280;57745;42.524;12.052;2023-05-07T09:05:14;96617.88;;;22.01;45.93
58367;BME280;57745;42.524;12.052;2023-05-07T09:07:39;96612.38;;;22.01;45.56
58367;BME280;57745;42.524;12.052;2023-05-07T09:10:05;96621.44;;;22.07;45.84
58367;BME280;57745;42.524;12.052;2023-05-07T09:12:31;96609.91;;;22.08;45.24
58367;BME280;57745;42.524;12.052;2023-05-07T09:14:59;96615.41;;;22.14;45.20
58367;BME280;57745;42.524;12.052;2023-05-07T09:17:25;96610.66;;;22.09;45.05
58367;BME280;57745;42.524;12.052;2023-05-07T09:19:50;96608.66;;;22.15;44.87
58367;BME280;57745;42.524;12.052;2023-05-07T09:22:15;96608.66;;;22.20;45.20
58367;BME280;57745;42.524;12.052;2023-05-07T09:24:47;96614.94;;;22.10;45.17
58367;BME280;57745;42.524;12.052;2023-05-07T09:27:12;96614.19;;;22.20;44.89
58367;BME280;57745;42.524;12.052;2023-05-07T09:29:38;96620.72;;;22.23;44.80
58367;BME280;57745;42.524;12.052;2023-05-07T09:32:05;96618.19;;;22.14;44.82
58367;BME280;57745;42.524;12.052;2023-05-07T09:34:31;96623.47;;;22.17;44.89
58367;BME280;57745;42.524;12.052;2023-05-07T09:37:04;96610.19;;;22.21;44.73
58367;BME280;57745;42.524;12.052;2023-05-07T09:39:47;96613.44;;;22.26;44.75
58367;BME280;57745;42.524;12.052;2023-05-07T09:42:13;96615.69;;;22.27;44.81
58367;BME280;57745;42.524;12.052;2023-05-07T09:44:40;96610.94;;;22.22;44.89
58367;BME280;57745;42.524;12.052;2023-05-07T09:47:07;96621.25;;;22.33;45.06
58367;BME280;57745;42.524;12.052;2023-05-07T09:49:37;96617.72;;;22.27;44.59
58367;BME280;57745;42.524;12.052;2023-05-07T09:52:05;96614.97;;;22.32;45.05
58367;BME280;57745;42.524;12.052;2023-05-07T09:54:33;96611.69;;;22.28;44.81
58367;BME280;57745;42.524;12.052;2023-05-07T09:57:04;96618.72;;;22.29;44.53
58367;BME280;57745;42.524;12.052;2023-05-07T09:59:31;96614.97;;;22.38;44.09
58367;BME280;57745;42.524;12.052;2023-05-07T10:01:58;96608.69;;;22.32;44.38
58367;BME280;57745;42.524;12.052;2023-05-07T10:04:27;96609.22;;;22.47;44.03
58367;BME280;57745;42.524;12.052;2023-05-07T10:06:54;96604.41;;;22.42;43.95
58367;BME280;57745;42.524;12.052;2023-05-07T10:09:21;96612.19;;;22.38;44.41
58367;BME280;57745;42.524;12.052;2023-05-07T10:11:48;96604.19;;;22.45;43.91
58367;BME280;57745;42.524;12.052;2023-05-07T10:14:14;96608.97;;;22.45;43.33
58367;BME280;57745;42.524;12.052;2023-05-07T10:16:40;96609.44;;;22.43;43.11
58367;BME280;57745;42.524;12.052;2023-05-07T10:19:18;96608.47;;;22.46;42.49
58367;BME280;57745;42.524;12.052;2023-05-07T10:21:44;96601.19;;;22.49;43.01
58367;BME280;57745;42.524;12.052;2023-05-07T10:24:30;96605.44;;;22.55;42.64
58367;BME280;57745;42.524;12.052;2023-05-07T10:26:58;96605.94;;;22.48;42.95
58367;BME280;57745;42.524;12.052;2023-05-07T10:34:43;96600.44;;;22.48;43.22
58367;BME280;57745;42.524;12.052;2023-05-07T10:37:11;96603.19;;;22.60;42.93
58367;BME280;57745;42.524;12.052;2023-05-07T10:39:37;96604.44;;;22.58;43.17
58367;BME280;57745;42.524;12.052;2023-05-07T10:42:10;96600.94;;;22.58;43.42
58367;BME280;57745;42.524;12.052;2023-05-07T10:44:37;96601.44;;;22.56;43.68
58367;BME280;57745;42.524;12.052;2023-05-07T10:47:10;96598.91;;;22.70;43.80
58367;BME280;57745;42.524;12.052;2023-05-07T10:52:31;96593.88;;;22.63;43.92
58367;BME280;57745;42.524;12.052;2023-05-07T10:55:22;96595.91;;;22.68;43.74
58367;BME280;57745;42.524;12.052;2023-05-07T10:57:50;96589.13;;;22.69;43.85
58367;BME280;57745;42.524;12.052;2023-05-07T11:05:29;96583.84;;;22.82;43.53
58367;BME280;57745;42.524;12.052;2023-05-07T11:08:00;96590.88;;;22.72;44.02
58367;BME280;57745;42.524;12.052;2023-05-07T11:13:14;96586.13;;;22.78;44.09
58367;BME280;57745;42.524;12.052;2023-05-07T11:15:45;96589.88;;;22.80;44.46
58367;BME280;57745;42.524;12.052;2023-05-07T11:18:15;96586.88;;;22.84;44.47
58367;BME280;57745;42.524;12.052;2023-05-07T11:20:48;96585.63;;;22.79;44.34
58367;BME280;57745;42.524;12.052;2023-05-07T11:26:04;96588.66;;;22.87;44.26
58367;BME280;57745;42.524;12.052;2023-05-07T11:28:31;96582.09;;;22.90;43.94
58367;BME280;57745;42.524;12.052;2023-05-07T11:31:02;96578.31;;;22.93;43.85
58367;BME280;57745;42.524;12.052;2023-05-07T11:33:28;96584.59;;;22.93;43.87
58367;BME280;57745;42.524;12.052;2023-05-07T11:35:54;96575.03;;;22.89;44.00
58367;BME280;57745;42.524;12.052;2023-05-07T11:38:20;96574.03;;;22.92;44.53
58367;BME280;57745;42.524;12.052;2023-05-07T11:40:55;96565.50;;;22.84;45.22
58367;BME280;57745;42.524;12.052;2023-05-07T11:43:21;96578.06;;;22.91;44.95
58367;BME280;57745;42.524;12.052;2023-05-07T11:45:46;96573.28;;;22.97;44.57
58367;BME280;57745;42.524;12.052;2023-05-07T11:48:13;96585.34;;;22.94;44.65
58367;BME280;57745;42.524;12.052;2023-05-07T11:51:01;96577.56;;;22.92;44.93
58367;BME280;57745;42.524;12.052;2023-05-07T11:53:32;96581.84;;;22.93;45.26
58367;BME280;57745;42.524;12.052;2023-05-07T11:56:00;96582.06;;;23.01;45.64
58367;BME280;57745;42.524;12.052;2023-05-07T11:58:25;96583.06;;;23.04;45.57
58367;BME280;57745;42.524;12.052;2023-05-07T12:00:52;96583.84;;;22.99;45.91
58367;BME280;57745;42.524;12.052;2023-05-07T12:03:19;96579.56;;;22.98;45.84
58367;BME280;57745;42.524;12.052;2023-05-07T12:05:45;96578.81;;;22.97;46.23
58367;BME280;57745;42.524;12.052;2023-05-07T12:08:17;96577.06;;;22.94;46.10
58367;BME280;57745;42.524;12.052;2023-05-07T12:10:44;96578.31;;;22.93;45.88
58367;BME280;57745;42.524;12.052;2023-05-07T12:15:42;96578.81;;;22.97;45.92
58367;BME280;57745;42.524;12.052;2023-05-07T12:18:08;96580.81;;;22.91;45.65
58367;BME280;57745;42.524;12.052;2023-05-07T12:20:37;96581.84;;;22.93;45.19
58367;BME280;57745;42.524;12.052;2023-05-07T12:23:02;96579.31;;;22.96;45.37
58367;BME280;57745;42.524;12.052;2023-05-07T12:25:35;96578.81;;;22.97;45.61
58367;BME280;57745;42.524;12.052;2023-05-07T12:28:04;96571.53;;;22.88;45.73
58367;BME280;57745;42.524;12.052;2023-05-07T12:30:37;96579.06;;;22.99;45.00
58367;BME280;57745;42.524;12.052;2023-05-07T12:33:02;96588.84;;;23.00;45.36
58367;BME280;57745;42.524;12.052;2023-05-07T12:35:29;96583.84;;;22.99;44.96
58367;BME280;57745;42.524;12.052;2023-05-07T12:37:59;96577.06;;;22.94;44.63
58367;BME280;57745;42.524;12.052;2023-05-07T12:40:36;96570.28;;;22.95;44.86
58367;BME280;57745;42.524;12.052;2023-05-07T12:43:02;96573.28;;;22.97;44.68
58367;BME280;57745;42.524;12.052;2023-05-07T12:45:29;96577.78;;;23.00;44.42
58367;BME280;57745;42.524;12.052;2023-05-07T12:47:54;96568.75;;;22.94;44.27
58367;BME280;57745;42.524;12.052;2023-05-07T12:50:20;96560.94;;;23.04;43.92
58367;BME280;57745;42.524;12.052;2023-05-07T12:52:48;96558.19;;;22.98;43.95
58367;BME280;57745;42.524;12.052;2023-05-07T12:55:15;96559.72;;;22.99;44.17
58367;BME280;57745;42.524;12.052;2023-05-07T12:57:48;96557.69;;;22.94;44.50
58367;BME280;57745;42.524;12.052;2023-05-07T13:00:15;96562.22;;;22.97;44.92
58367;BME280;57745;42.524;12.052;2023-05-07T13:02:42;96559.22;;;22.95;44.57
58367;BME280;57745;42.524;12.052;2023-05-07T13:05:10;96556.44;;;22.95;44.41
58367;BME280;57745;42.524;12.052;2023-05-07T13:07:37;96556.66;;;23.08;44.67